createdAt,value
2017-08-01T00:02:02.118Z,74.60
2017-08-01T00:04:29.581Z,74.80
2017-08-01T00:06:57.054Z,75.10
2017-08-01T00:09:25.277Z,76.30
2017-08-01T00:11:52.742Z,75.40
2017-08-01T00:14:20.218Z,75.50
2017-08-01T00:16:47.684Z,75.60
2017-08-01T00:19:15.160Z,75.60
2017-08-01T00:21:42.642Z,75.70
2017-08-01T00:24:10.101Z,75.70
2017-08-01T00:26:37.578Z,75.60
2017-08-01T00:29:05.809Z,75.60
2017-08-01T00:31:33.273Z,75.60
2017-08-01T00:34:00.749Z,75.60
2017-08-01T00:36:28.197Z,75.60
2017-08-01T00:38:55.689Z,75.70
2017-08-01T00:41:23.237Z,75.90
2017-08-01T00:43:50.698Z,76.20
2017-08-01T00:46:18.166Z,76.30
2017-08-01T00:48:45.630Z,76.30
2017-08-01T00:51:13.296Z,76.60
2017-08-01T00:53:40.756Z,76.60
2017-08-01T00:56:08.220Z,76.70
2017-08-01T00:58:35.697Z,76.50
2017-08-01T01:01:03.907Z,76.40
2017-08-01T01:03:31.373Z,76.40
2017-08-01T01:05:59.634Z,76.80
2017-08-01T01:08:27.860Z,77.30
2017-08-01T01:10:55.317Z,77.30
2017-08-01T01:13:22.779Z,77.50
2017-08-01T01:15:50.229Z,77.70
2017-08-01T01:18:17.688Z,77.70
2017-08-01T01:20:45.144Z,77.50
2017-08-01T01:23:12.594Z,77.40
2017-08-01T01:25:40.824Z,77.40
2017-08-01T01:28:08.267Z,77.40
2017-08-01T01:30:35.768Z,77.30
2017-08-01T01:33:03.224Z,77.40
2017-08-01T01:35:30.684Z,77.40
2017-08-01T01:37:58.137Z,77.40
2017-08-01T01:40:25.593Z,77.40
2017-08-01T01:42:53.053Z,77.30
2017-08-01T01:45:20.509Z,77.30
2017-08-01T01:47:47.966Z,77.30
2017-08-01T01:50:15.431Z,77.30
2017-08-01T01:52:42.884Z,77.30
2017-08-01T01:55:10.340Z,77.20
2017-08-01T01:57:37.804Z,77.10
2017-08-01T02:00:05.793Z,77.30
2017-08-01T02:02:33.237Z,77.40
2017-08-01T02:05:01.453Z,77.90
2017-08-01T02:07:28.908Z,77.80
2017-08-01T02:09:56.366Z,78.00
2017-08-01T02:12:23.817Z,77.80
2017-08-01T02:14:51.276Z,77.90
2017-08-01T02:17:18.737Z,78.00
2017-08-01T02:19:46.193Z,78.00
2017-08-01T02:22:13.645Z,77.90
2017-08-01T02:24:41.868Z,78.00
2017-08-01T02:27:09.378Z,78.00
2017-08-01T02:29:36.837Z,78.00
2017-08-01T02:32:04.296Z,78.00
2017-08-01T02:34:31.756Z,78.10
2017-08-01T02:36:59.208Z,78.00
2017-08-01T02:39:26.668Z,78.10
2017-08-01T02:41:54.125Z,78.00
2017-08-01T02:44:21.580Z,77.90
2017-08-01T02:46:49.038Z,77.90
2017-08-01T02:49:16.502Z,78.00
2017-08-01T02:51:43.949Z,78.00
2017-08-01T02:54:11.409Z,78.10
2017-08-01T02:56:38.899Z,78.10
2017-08-01T02:59:06.605Z,78.10
2017-08-01T03:01:35.197Z,78.10
2017-08-01T03:04:03.663Z,78.20
2017-08-01T03:06:31.121Z,78.10
2017-08-01T03:08:59.186Z,78.20
2017-08-01T03:11:26.636Z,78.50
2017-08-01T03:13:54.099Z,78.20
2017-08-01T03:16:22.949Z,78.30
2017-08-01T03:18:52.005Z,78.60
2017-08-01T03:21:19.453Z,78.60
2017-08-01T03:23:46.916Z,78.60
2017-08-01T03:26:14.388Z,79.00
2017-08-01T03:28:41.840Z,80.00
2017-08-01T03:31:09.289Z,79.70
2017-08-01T03:33:37.126Z,80.00
2017-08-01T03:36:05.349Z,79.80
2017-08-01T03:38:32.809Z,79.80
2017-08-01T03:41:00.310Z,79.60
2017-08-01T03:43:28.148Z,79.50
2017-08-01T03:45:55.602Z,79.30
2017-08-01T03:48:23.054Z,79.20
2017-08-01T03:50:50.508Z,79.10
2017-08-01T03:53:17.959Z,79.30
2017-08-01T03:55:46.180Z,79.80
2017-08-01T03:58:13.630Z,79.80
2017-08-01T04:00:41.097Z,80.10
2017-08-01T04:03:08.553Z,80.20
2017-08-01T04:05:36.010Z,80.50
2017-08-01T04:08:03.513Z,80.90
2017-08-01T04:10:30.957Z,80.70
2017-08-01T04:12:58.416Z,80.60
2017-08-01T04:15:25.879Z,80.40
2017-08-01T04:17:53.328Z,80.30
2017-08-01T04:20:20.838Z,80.40
2017-08-01T04:22:48.296Z,80.60
2017-08-01T04:25:15.748Z,80.60
2017-08-01T04:27:43.221Z,80.90
2017-08-01T04:30:10.681Z,81.00
2017-08-01T04:32:38.137Z,81.10
2017-08-01T04:35:05.583Z,81.20
2017-08-01T04:37:33.032Z,81.20
2017-08-01T04:40:00.496Z,81.20
2017-08-01T04:42:27.965Z,81.10
2017-08-01T04:45:02.769Z,81.10
2017-08-01T04:47:30.237Z,81.20
2017-08-01T04:49:57.696Z,81.00
2017-08-01T04:52:25.156Z,80.90
2017-08-01T04:54:53.369Z,80.80
2017-08-01T04:57:20.824Z,80.90
2017-08-01T04:59:48.279Z,80.90
2017-08-01T05:02:15.735Z,80.90
2017-08-01T05:04:43.244Z,80.80
2017-08-01T05:07:10.704Z,80.80
2017-08-01T05:09:38.177Z,80.80
2017-08-01T05:12:05.616Z,80.80
2017-08-01T05:14:33.073Z,80.80
2017-08-01T05:17:00.533Z,80.80
2017-08-01T05:19:27.987Z,80.80
2017-08-01T05:21:55.955Z,81.00
2017-08-01T05:24:23.425Z,81.10
2017-08-01T05:26:50.884Z,81.10
2017-08-01T05:29:18.352Z,81.10
2017-08-01T05:31:45.812Z,81.10
2017-08-01T05:34:13.272Z,81.20
2017-08-01T05:36:40.740Z,81.10
2017-08-01T05:39:08.196Z,81.20
2017-08-01T05:41:35.694Z,81.20
2017-08-01T05:44:03.128Z,81.20
2017-08-01T05:46:30.584Z,81.10
2017-08-01T05:48:58.707Z,81.20
2017-08-01T05:51:26.160Z,81.00
2017-08-01T05:53:53.620Z,81.10
2017-08-01T05:56:21.081Z,81.00
2017-08-01T05:58:48.553Z,81.10
2017-08-01T06:01:15.996Z,81.00
2017-08-01T06:03:43.513Z,80.90
2017-08-01T06:06:11.721Z,80.80
2017-08-01T06:08:39.185Z,80.80
2017-08-01T06:11:06.651Z,80.60
2017-08-01T06:13:34.109Z,81.20
2017-08-01T06:16:01.577Z,80.70
2017-08-01T06:18:29.052Z,80.70
2017-08-01T06:20:56.546Z,80.70
2017-08-01T06:23:24.023Z,80.70
2017-08-01T06:25:51.496Z,80.80
2017-08-01T06:28:19.743Z,80.80
2017-08-01T06:30:47.219Z,80.80
2017-08-01T06:33:14.680Z,80.40
2017-08-01T06:35:42.250Z,80.40
2017-08-01T06:38:09.742Z,80.40
2017-08-01T06:40:37.994Z,80.00
2017-08-01T06:43:05.553Z,80.70
2017-08-01T06:45:33.325Z,79.80
2017-08-01T06:48:00.799Z,79.60
2017-08-01T06:50:29.026Z,79.50
2017-08-01T06:52:56.934Z,79.30
2017-08-01T06:55:24.417Z,79.50
2017-08-01T06:57:52.649Z,80.20
2017-08-01T07:00:20.115Z,79.30
2017-08-01T07:02:47.613Z,79.30
2017-08-01T07:05:15.073Z,79.30
2017-08-01T07:07:42.538Z,79.30
2017-08-01T07:10:10.024Z,79.30
2017-08-01T07:12:38.243Z,79.40
2017-08-01T07:15:05.737Z,79.30
2017-08-01T07:17:33.265Z,79.50
2017-08-01T07:20:00.767Z,79.50
2017-08-01T07:22:28.212Z,79.50
2017-08-01T07:24:55.717Z,79.50
2017-08-01T07:27:23.956Z,79.70
2017-08-01T07:29:51.449Z,79.70
2017-08-01T07:32:18.962Z,79.70
2017-08-01T07:34:46.432Z,79.70
2017-08-01T07:37:13.928Z,79.70
2017-08-01T07:39:41.480Z,79.70
2017-08-01T07:42:08.928Z,79.70
2017-08-01T07:44:36.402Z,79.80
2017-08-01T07:47:04.485Z,79.80
2017-08-01T07:49:31.956Z,80.00
2017-08-01T07:51:59.437Z,80.00
2017-08-01T07:54:26.926Z,80.60
2017-08-01T07:56:54.384Z,80.00
2017-08-01T07:59:21.859Z,79.80
2017-08-01T08:01:49.333Z,79.90
2017-08-01T08:04:16.820Z,80.00
2017-08-01T08:06:44.286Z,80.20
2017-08-01T08:09:11.768Z,80.40
2017-08-01T08:11:39.219Z,80.60
2017-08-01T08:14:06.674Z,81.40
2017-08-01T08:16:34.287Z,80.70
2017-08-01T08:19:02.532Z,80.80
2017-08-01T08:21:29.985Z,80.90
2017-08-01T08:23:57.487Z,81.10
2017-08-01T08:26:25.712Z,83.10
2017-08-01T08:28:53.191Z,83.10
2017-08-01T08:31:20.665Z,83.80
2017-08-01T08:33:49.092Z,84.00
2017-08-01T08:36:16.561Z,84.30
2017-08-01T08:38:44.408Z,84.20
2017-08-01T08:41:12.659Z,83.90
2017-08-01T08:43:40.107Z,83.80
2017-08-01T08:46:08.390Z,83.30
2017-08-01T08:48:35.869Z,83.10
2017-08-01T08:51:03.346Z,83.00
2017-08-01T08:53:30.829Z,82.80
2017-08-01T08:55:59.076Z,82.70
2017-08-01T08:58:26.545Z,82.70
2017-08-01T09:00:54.799Z,82.70
2017-08-01T09:03:22.609Z,82.70
2017-08-01T09:05:51.778Z,82.90
2017-08-01T09:08:19.248Z,82.90
2017-08-01T09:10:46.707Z,82.90
2017-08-01T09:13:14.170Z,82.80
2017-08-01T09:15:42.029Z,82.80
2017-08-01T09:18:09.957Z,83.00
2017-08-01T09:20:38.184Z,83.10
2017-08-01T09:23:05.655Z,83.00
2017-08-01T09:25:33.109Z,83.20
2017-08-01T09:28:01.321Z,83.20
2017-08-01T09:30:28.775Z,83.10
2017-08-01T09:32:56.313Z,83.30
2017-08-01T09:35:23.783Z,83.30
2017-08-01T09:37:51.240Z,83.40
2017-08-01T09:40:18.704Z,83.50
2017-08-01T09:42:46.157Z,83.80
2017-08-01T09:45:13.605Z,83.50
2017-08-01T09:47:41.069Z,83.30
2017-08-01T09:50:08.528Z,83.50
2017-08-01T09:52:35.973Z,84.40
2017-08-01T09:55:03.432Z,83.50
2017-08-01T09:57:30.887Z,83.40
2017-08-01T09:59:59.109Z,84.00
2017-08-01T10:02:26.565Z,84.00
2017-08-01T10:04:54.028Z,83.80
2017-08-01T10:07:21.478Z,83.60
2017-08-01T10:09:48.936Z,83.80
2017-08-01T10:12:16.397Z,84.10
2017-08-01T10:14:43.845Z,83.90
2017-08-01T10:17:12.076Z,83.90
2017-08-01T10:19:39.546Z,83.90
2017-08-01T10:22:07.004Z,84.10
2017-08-01T10:24:34.465Z,84.90
2017-08-01T10:27:01.933Z,84.30
2017-08-01T10:29:29.390Z,84.20
2017-08-01T10:31:56.852Z,84.30
2017-08-01T10:34:24.317Z,84.30
2017-08-01T10:36:51.764Z,84.30
2017-08-01T10:39:19.440Z,84.20
2017-08-01T10:41:46.901Z,84.20
2017-08-01T10:44:14.364Z,84.20
2017-08-01T10:46:41.821Z,84.10
2017-08-01T10:49:09.285Z,84.00
2017-08-01T10:51:36.740Z,83.90
2017-08-01T10:54:04.496Z,83.90
2017-08-01T10:56:31.952Z,83.90
2017-08-01T10:58:59.408Z,83.90
2017-08-01T11:01:26.865Z,83.90
2017-08-01T11:03:55.104Z,83.90
2017-08-01T11:06:22.545Z,83.90
2017-08-01T11:08:50.001Z,83.90
2017-08-01T11:11:17.465Z,83.70
2017-08-01T11:13:44.908Z,83.80
2017-08-01T11:16:12.726Z,83.80
2017-08-01T11:18:40.168Z,83.70
2017-08-01T11:21:07.638Z,83.70
2017-08-01T11:23:35.101Z,83.70
2017-08-01T11:26:02.593Z,83.60
2017-08-01T11:28:30.059Z,83.60
2017-08-01T11:30:57.512Z,83.60
2017-08-01T11:33:24.958Z,83.70
2017-08-01T11:35:52.408Z,83.70
2017-08-01T11:38:19.890Z,83.70
2017-08-01T11:40:47.356Z,83.90
2017-08-01T11:43:15.587Z,83.90
2017-08-01T11:45:43.031Z,84.10
2017-08-01T11:48:11.244Z,84.20
2017-08-01T11:50:39.187Z,84.20
2017-08-01T11:53:07.435Z,84.30
2017-08-01T11:55:34.906Z,84.30
2017-08-01T11:58:02.457Z,84.30
2017-08-01T12:00:29.908Z,84.50
2017-08-01T12:02:57.583Z,84.50
2017-08-01T12:05:25.022Z,84.50
2017-08-01T12:07:52.468Z,84.50
2017-08-01T12:10:19.917Z,84.60
2017-08-01T12:12:48.154Z,84.70
2017-08-01T12:15:15.601Z,84.70
2017-08-01T12:17:43.065Z,84.70
2017-08-01T12:20:10.529Z,84.90
2017-08-01T12:22:37.989Z,84.90
2017-08-01T12:25:05.441Z,85.00
2017-08-01T12:27:32.901Z,85.00
2017-08-01T12:30:00.361Z,85.10
2017-08-01T12:32:27.847Z,85.20
2017-08-01T12:34:55.316Z,85.20
2017-08-01T12:37:22.775Z,85.30
2017-08-01T12:39:50.224Z,85.40
2017-08-01T12:42:17.676Z,85.50
2017-08-01T12:44:45.142Z,85.50
2017-08-01T12:47:12.593Z,85.60
2017-08-01T12:49:40.055Z,85.70
2017-08-01T12:52:07.656Z,85.60
2017-08-01T12:54:35.109Z,85.60
2017-08-01T12:57:02.582Z,85.70
2017-08-01T12:59:30.040Z,85.80
2017-08-01T13:01:57.500Z,85.70
2017-08-01T13:04:24.937Z,85.90
2017-08-01T13:06:52.401Z,85.90
2017-08-01T13:09:19.867Z,85.80
2017-08-01T13:11:47.321Z,85.90
2017-08-01T13:14:14.823Z,86.00
2017-08-01T13:16:42.276Z,86.00
2017-08-01T13:19:09.738Z,86.00
2017-08-01T13:21:37.197Z,85.90
2017-08-01T13:24:04.676Z,86.00
2017-08-01T13:26:32.125Z,85.90
2017-08-01T13:28:59.586Z,85.90
2017-08-01T13:31:27.037Z,85.80
2017-08-01T13:33:54.480Z,85.70
2017-08-01T13:36:21.940Z,85.70
2017-08-01T13:38:49.898Z,85.60
2017-08-01T13:41:18.117Z,85.40
2017-08-01T13:43:45.943Z,85.40
2017-08-01T13:46:13.411Z,85.30
2017-08-01T13:48:41.660Z,85.20
2017-08-01T13:51:09.115Z,85.10
2017-08-01T13:53:36.586Z,85.10
2017-08-01T13:56:04.017Z,85.00
2017-08-01T13:58:31.474Z,84.90
2017-08-01T14:00:58.930Z,84.70
2017-08-01T14:03:26.388Z,84.70
2017-08-01T14:05:53.824Z,84.60
2017-08-01T14:08:22.053Z,85.00
2017-08-01T14:10:49.509Z,84.60
2017-08-01T14:13:16.973Z,84.70
2017-08-01T14:15:44.430Z,84.60
2017-08-01T14:18:11.881Z,84.60
2017-08-01T14:20:39.349Z,84.60
2017-08-01T14:23:07.553Z,84.50
2017-08-01T14:25:35.028Z,84.50
2017-08-01T14:28:02.468Z,84.50
2017-08-01T14:30:29.929Z,84.40
2017-08-01T14:32:57.393Z,84.40
2017-08-01T14:35:24.852Z,84.40
2017-08-01T14:37:52.309Z,84.40
2017-08-01T14:40:19.755Z,84.30
2017-08-01T14:42:47.245Z,84.10
2017-08-01T14:45:14.704Z,84.10
2017-08-01T14:47:42.161Z,84.00
2017-08-01T14:50:09.605Z,84.00
2017-08-01T14:52:37.833Z,83.90
2017-08-01T14:55:05.306Z,83.90
2017-08-01T14:57:32.766Z,83.80
2017-08-01T15:00:00.233Z,83.70
2017-08-01T15:02:27.690Z,83.70
2017-08-01T15:04:55.150Z,83.70
2017-08-01T15:07:22.589Z,84.50
2017-08-01T15:09:50.045Z,83.70
2017-08-01T15:12:17.504Z,83.70
2017-08-01T15:14:44.953Z,83.70
2017-08-01T15:17:12.410Z,83.70
2017-08-01T15:19:39.872Z,83.60
2017-08-01T15:22:08.099Z,83.50
2017-08-01T15:24:35.546Z,84.30
2017-08-01T15:27:03.006Z,83.60
2017-08-01T15:29:30.465Z,83.60
2017-08-01T15:31:57.970Z,83.60
2017-08-01T15:34:25.421Z,83.60
2017-08-01T15:36:53.033Z,83.60
2017-08-01T15:39:21.498Z,83.40
2017-08-01T15:41:48.956Z,83.40
2017-08-01T15:44:16.405Z,83.20
2017-08-01T15:46:43.857Z,83.30
2017-08-01T15:49:11.312Z,83.30
2017-08-01T15:51:38.777Z,83.10
2017-08-01T15:54:06.232Z,83.00
2017-08-01T15:56:33.692Z,83.00
2017-08-01T15:59:01.157Z,83.00
2017-08-01T16:01:28.621Z,83.00
2017-08-01T16:03:56.072Z,83.00
2017-08-01T16:06:23.529Z,82.90
2017-08-01T16:08:50.984Z,82.80
2017-08-01T16:11:18.429Z,82.80
2017-08-01T16:13:46.693Z,82.80
2017-08-01T16:16:14.148Z,82.80
2017-08-01T16:18:42.017Z,82.80
2017-08-01T16:21:09.491Z,83.40
2017-08-01T16:23:37.048Z,82.70
2017-08-01T16:26:04.496Z,82.50
2017-08-01T16:28:31.963Z,82.40
2017-08-01T16:30:59.411Z,82.50
2017-08-01T16:33:27.212Z,82.50
2017-08-01T16:35:54.756Z,82.40
2017-08-01T16:38:22.198Z,82.40
2017-08-01T16:40:49.652Z,82.30
2017-08-01T16:43:17.157Z,82.30
2017-08-01T16:45:47.288Z,82.30
2017-08-01T16:48:15.198Z,82.30
2017-08-01T16:50:42.645Z,82.40
2017-08-01T16:53:10.121Z,82.50
2017-08-01T16:55:37.568Z,82.40
2017-08-01T16:58:05.779Z,82.40
2017-08-01T17:00:33.237Z,82.40
2017-08-01T17:03:00.671Z,82.30
2017-08-01T17:05:28.892Z,82.10
2017-08-01T17:07:56.349Z,82.10
2017-08-01T17:10:23.908Z,82.10
2017-08-01T17:12:51.396Z,81.90
2017-08-01T17:15:18.852Z,81.80
2017-08-01T17:17:46.309Z,81.60
2017-08-01T17:20:13.764Z,81.40
2017-08-01T17:22:41.221Z,81.30
2017-08-01T17:25:08.665Z,81.20
2017-08-01T17:27:36.121Z,81.20
2017-08-01T17:30:04.340Z,81.10
2017-08-01T17:32:31.798Z,81.00
2017-08-01T17:34:59.253Z,81.00
2017-08-01T17:37:26.714Z,80.90
2017-08-01T17:39:54.178Z,80.70
2017-08-01T17:42:21.641Z,80.60
2017-08-01T17:44:49.100Z,80.50
2017-08-01T17:47:16.545Z,80.40
2017-08-01T17:49:44.012Z,81.00
2017-08-01T17:52:12.296Z,80.20
2017-08-01T17:54:40.262Z,80.20
2017-08-01T17:57:07.779Z,80.10
2017-08-01T17:59:35.238Z,80.10
2017-08-01T18:02:02.702Z,80.00
2017-08-01T18:04:30.160Z,80.00
2017-08-01T18:06:57.616Z,79.90
2017-08-01T18:09:25.104Z,79.80
2017-08-01T18:11:52.549Z,79.80
2017-08-01T18:14:20.077Z,79.70
2017-08-01T18:16:47.529Z,79.70
2017-08-01T18:19:15.469Z,79.70
2017-08-01T18:21:42.926Z,79.70
2017-08-01T18:24:10.388Z,79.70
2017-08-01T18:26:37.837Z,79.70
2017-08-01T18:29:05.329Z,79.70
2017-08-01T18:31:32.897Z,79.70
2017-08-01T18:34:01.133Z,79.80
2017-08-01T18:36:28.609Z,79.80
2017-08-01T18:38:56.060Z,79.80
2017-08-01T18:41:23.529Z,79.70
2017-08-01T18:43:51.021Z,79.80
2017-08-01T18:46:18.465Z,79.70
2017-08-01T18:48:45.928Z,79.70
2017-08-01T18:51:13.498Z,79.60
2017-08-01T18:53:40.957Z,79.70
2017-08-01T18:56:08.416Z,79.70
2017-08-01T18:58:35.873Z,79.70
2017-08-01T19:01:03.329Z,79.80
2017-08-01T19:03:30.801Z,79.90
2017-08-01T19:05:58.248Z,79.90
2017-08-01T19:08:25.701Z,79.90
2017-08-01T19:10:54.246Z,80.00
2017-08-01T19:13:22.616Z,80.00
2017-08-01T19:15:50.073Z,80.10
2017-08-01T19:18:17.534Z,80.00
2017-08-01T19:20:44.989Z,79.90
2017-08-01T19:23:12.461Z,79.80
2017-08-01T19:25:39.929Z,79.50
2017-08-01T19:28:07.385Z,79.30
2017-08-01T19:30:34.856Z,79.10
2017-08-01T19:33:02.324Z,78.90
2017-08-01T19:35:29.796Z,78.90
2017-08-01T19:37:58.029Z,79.00
2017-08-01T19:40:25.502Z,78.60
2017-08-01T19:42:53.329Z,78.50
2017-08-01T19:45:21.548Z,79.20
2017-08-01T19:47:49.038Z,78.30
2017-08-01T19:50:16.486Z,78.20
2017-08-01T19:52:44.049Z,78.10
2017-08-01T19:55:11.508Z,78.00
2017-08-01T19:57:38.968Z,77.90
2017-08-01T20:00:06.437Z,77.70
2017-08-01T20:02:33.986Z,77.50
2017-08-01T20:05:01.445Z,77.30
2017-08-01T20:07:28.900Z,77.20
2017-08-01T20:09:56.365Z,77.30
2017-08-01T20:12:23.815Z,77.10
2017-08-01T20:14:51.253Z,77.10
2017-08-01T20:17:19.489Z,76.80
2017-08-01T20:19:46.961Z,76.80
2017-08-01T20:22:14.409Z,76.80
2017-08-01T20:24:42.292Z,76.70
2017-08-01T20:27:09.748Z,76.80
2017-08-01T20:29:37.193Z,76.80
2017-08-01T20:32:04.664Z,76.80
2017-08-01T20:34:32.890Z,76.80
2017-08-01T20:37:00.337Z,76.70
2017-08-01T20:39:27.889Z,76.60
2017-08-01T20:41:55.353Z,76.60
2017-08-01T20:44:23.065Z,76.60
2017-08-01T20:46:51.284Z,76.50
2017-08-01T20:49:18.761Z,76.50
2017-08-01T20:51:46.209Z,76.40
2017-08-01T20:54:13.666Z,76.40
2017-08-01T20:56:41.128Z,76.40
2017-08-01T20:59:08.593Z,76.40
2017-08-01T21:01:36.068Z,76.40
2017-08-01T21:04:04.481Z,76.40
2017-08-01T21:06:31.974Z,76.50
2017-08-01T21:09:00.182Z,76.40
2017-08-01T21:11:27.640Z,76.30
2017-08-01T21:13:55.109Z,76.30
2017-08-01T21:16:22.565Z,76.20
2017-08-01T21:18:50.561Z,76.20
2017-08-01T21:21:18.020Z,76.20
2017-08-01T21:23:45.558Z,76.40
2017-08-01T21:26:13.017Z,76.30
2017-08-01T21:28:40.479Z,76.30
2017-08-01T21:31:07.971Z,76.40
2017-08-01T21:33:35.432Z,76.30
2017-08-01T21:36:02.915Z,76.40
2017-08-01T21:38:30.369Z,76.60
2017-08-01T21:40:57.839Z,76.80
2017-08-01T21:43:26.020Z,77.00
2017-08-01T21:45:53.484Z,77.00
2017-08-01T21:48:20.940Z,77.10
2017-08-01T21:50:48.393Z,77.00
2017-08-01T21:53:15.857Z,76.80
2017-08-01T21:55:43.334Z,76.80
2017-08-01T21:58:10.822Z,76.70
2017-08-01T22:00:38.295Z,76.70
2017-08-01T22:03:06.541Z,76.80
2017-08-01T22:05:34.034Z,76.70
2017-08-01T22:08:02.260Z,76.60
2017-08-01T22:10:29.748Z,76.50
2017-08-01T22:12:57.216Z,76.60
2017-08-01T22:15:24.712Z,76.60
2017-08-01T22:17:52.969Z,76.70
2017-08-01T22:20:20.433Z,76.70
2017-08-01T22:22:47.885Z,76.70
2017-08-01T22:25:15.333Z,76.70
2017-08-01T22:27:42.793Z,76.80
2017-08-01T22:30:10.265Z,76.80
2017-08-01T22:32:37.721Z,77.00
2017-08-01T22:35:05.185Z,77.10
2017-08-01T22:37:32.893Z,77.10
2017-08-01T22:40:01.108Z,77.10
2017-08-01T22:42:28.573Z,77.10
2017-08-01T22:44:56.933Z,77.10
2017-08-01T22:47:24.388Z,77.20
2017-08-01T22:49:52.622Z,77.50
2017-08-01T22:52:20.084Z,77.50
2017-08-01T22:54:47.532Z,77.60
2017-08-01T22:57:14.988Z,77.60
2017-08-01T22:59:42.448Z,77.80
2017-08-01T23:02:09.896Z,77.90
2017-08-01T23:04:37.913Z,78.00
2017-08-01T23:07:05.377Z,78.00
2017-08-01T23:09:32.837Z,78.10
2017-08-01T23:12:00.284Z,78.10
2017-08-01T23:14:27.742Z,78.10
2017-08-01T23:16:55.200Z,78.20
2017-08-01T23:19:23.552Z,78.10
2017-08-01T23:21:51.777Z,78.60
2017-08-01T23:24:19.233Z,78.60
2017-08-01T23:26:46.689Z,78.60
2017-08-01T23:29:14.160Z,78.70
2017-08-01T23:31:41.613Z,78.70
2017-08-01T23:34:09.073Z,78.70
2017-08-01T23:36:36.537Z,78.70
2017-08-01T23:39:03.988Z,78.70
2017-08-01T23:41:31.455Z,78.70
2017-08-01T23:43:58.920Z,79.40
2017-08-01T23:46:26.368Z,78.70
2017-08-01T23:48:53.829Z,78.70
2017-08-01T23:51:21.384Z,78.70
2017-08-01T23:53:49.613Z,78.80
2017-08-01T23:56:17.064Z,78.80
2017-08-01T23:58:44.524Z,78.90
